sensor_id;sensor_type;location;lat;lon;timestamp;P1;durP1;ratioP1;P2;durP2;ratioP2
81231;SDS011;70703;55.652;37.710;2024-02-04T00:00:10;23.38;;;12.73;;
81231;SDS011;70703;55.652;37.710;2024-02-04T00:00:24;23.30;;;12.80;;
81231;SDS011;70703;55.652;37.710;2024-02-04T00:00:37;22.95;;;12.80;;
81231;SDS011;70703;55.652;37.710;2024-02-04T00:00:49;22.02;;;12.20;;
81231;SDS011;70703;55.652;37.710;2024-02-04T00:01:01;19.92;;;11.63;;
81231;SDS011;70703;55.652;37.710;2024-02-04T00:01:13;20.33;;;11.50;;
81231;SDS011;70703;55.652;37.710;2024-02-04T00:01:24;21.70;;;11.70;;
81231;SDS011;70703;55.652;37.710;2024-02-04T00:01:36;21.05;;;11.88;;
81231;SDS011;70703;55.652;37.710;2024-02-04T00:01:49;20.67;;;12.10;;
81231;SDS011;70703;55.652;37.710;2024-02-04T00:02:00;21.20;;;12.10;;
81231;SDS011;70703;55.652;37.710;2024-02-04T00:02:12;21.25;;;11.88;;
81231;SDS011;70703;55.652;37.710;2024-02-04T00:02:25;21.65;;;12.02;;
81231;SDS011;70703;55.652;37.710;2024-02-04T00:02:37;21.13;;;12.40;;
81231;SDS011;70703;55.652;37.710;2024-02-04T00:02:49;20.77;;;12.05;;
81231;SDS011;70703;55.652;37.710;2024-02-04T00:03:00;22.08;;;12.43;;
81231;SDS011;70703;55.652;37.710;2024-02-04T00:03:13;23.35;;;12.98;;
81231;SDS011;70703;55.652;37.710;2024-02-04T00:03:25;23.60;;;13.18;;
81231;SDS011;70703;55.652;37.710;2024-02-04T00:03:37;22.80;;;13.02;;
81231;SDS011;70703;55.652;37.710;2024-02-04T00:03:48;22.10;;;12.73;;
81231;SDS011;70703;55.652;37.710;2024-02-04T00:04:00;20.27;;;12.43;;
81231;SDS011;70703;55.652;37.710;2024-02-04T00:04:12;19.08;;;12.05;;
81231;SDS011;70703;55.652;37.710;2024-02-04T00:04:23;19.83;;;12.00;;
81231;SDS011;70703;55.652;37.710;2024-02-04T00:04:34;20.98;;;12.25;;
81231;SDS011;70703;55.652;37.710;2024-02-04T00:04:46;21.70;;;12.25;;
81231;SDS011;70703;55.652;37.710;2024-02-04T00:04:58;22.13;;;12.73;;
81231;SDS011;70703;55.652;37.710;2024-02-04T00:05:10;22.88;;;12.63;;
81231;SDS011;70703;55.652;37.710;2024-02-04T00:05:21;22.50;;;12.75;;
81231;SDS011;70703;55.652;37.710;2024-02-04T00:05:34;22.42;;;12.73;;
81231;SDS011;70703;55.652;37.710;2024-02-04T00:05:44;21.00;;;12.52;;
81231;SDS011;70703;55.652;37.710;2024-02-04T00:05:57;20.45;;;11.80;;
81231;SDS011;70703;55.652;37.710;2024-02-04T00:06:08;21.77;;;12.00;;
81231;SDS011;70703;55.652;37.710;2024-02-04T00:06:20;22.10;;;12.30;;
81231;SDS011;70703;55.652;37.710;2024-02-04T00:06:31;21.70;;;12.65;;
81231;SDS011;70703;55.652;37.710;2024-02-04T00:06:42;21.35;;;12.50;;
81231;SDS011;70703;55.652;37.710;2024-02-04T00:06:53;22.08;;;12.68;;
81231;SDS011;70703;55.652;37.710;2024-02-04T00:07:06;23.33;;;12.93;;
81231;SDS011;70703;55.652;37.710;2024-02-04T00:07:17;22.90;;;12.80;;
81231;SDS011;70703;55.652;37.710;2024-02-04T00:07:28;23.58;;;12.55;;
81231;SDS011;70703;55.652;37.710;2024-02-04T00:07:43;22.25;;;11.93;;
81231;SDS011;70703;55.652;37.710;2024-02-04T00:07:55;21.48;;;12.32;;
81231;SDS011;70703;55.652;37.710;2024-02-04T00:08:06;20.92;;;12.20;;
81231;SDS011;70703;55.652;37.710;2024-02-04T00:08:17;21.55;;;12.32;;
81231;SDS011;70703;55.652;37.710;2024-02-04T00:08:29;22.52;;;12.02;;
81231;SDS011;70703;55.652;37.710;2024-02-04T00:08:41;22.15;;;12.15;;
81231;SDS011;70703;55.652;37.710;2024-02-04T00:08:54;20.05;;;11.70;;
81231;SDS011;70703;55.652;37.710;2024-02-04T00:09:05;19.98;;;12.20;;
81231;SDS011;70703;55.652;37.710;2024-02-04T00:09:17;22.95;;;12.20;;
81231;SDS011;70703;55.652;37.710;2024-02-04T00:09:29;23.63;;;12.05;;
81231;SDS011;70703;55.652;37.710;2024-02-04T00:09:41;23.30;;;12.00;;
81231;SDS011;70703;55.652;37.710;2024-02-04T00:09:54;20.92;;;11.85;;
81231;SDS011;70703;55.652;37.710;2024-02-04T00:10:07;22.08;;;12.20;;
81231;SDS011;70703;55.652;37.710;2024-02-04T00:10:18;21.08;;;12.18;;
81231;SDS011;70703;55.652;37.710;2024-02-04T00:10:29;21.10;;;12.32;;
81231;SDS011;70703;55.652;37.710;2024-02-04T00:10:40;22.67;;;12.47;;
81231;SDS011;70703;55.652;37.710;2024-02-04T00:10:51;24.10;;;12.40;;
81231;SDS011;70703;55.652;37.710;2024-02-04T00:11:03;25.90;;;12.57;;
81231;SDS011;70703;55.652;37.710;2024-02-04T00:11:15;21.48;;;11.82;;
81231;SDS011;70703;55.652;37.710;2024-02-04T00:11:27;20.13;;;11.85;;
81231;SDS011;70703;55.652;37.710;2024-02-04T00:11:38;20.95;;;11.95;;
81231;SDS011;70703;55.652;37.710;2024-02-04T00:11:50;21.83;;;12.07;;
81231;SDS011;70703;55.652;37.710;2024-02-04T00:12:02;22.95;;;12.27;;
81231;SDS011;70703;55.652;37.710;2024-02-04T00:12:14;22.20;;;12.32;;
81231;SDS011;70703;55.652;37.710;2024-02-04T00:12:25;21.50;;;12.13;;
81231;SDS011;70703;55.652;37.710;2024-02-04T00:12:37;20.30;;;12.00;;
81231;SDS011;70703;55.652;37.710;2024-02-04T00:12:49;21.17;;;11.80;;
81231;SDS011;70703;55.652;37.710;2024-02-04T00:13:01;21.95;;;11.88;;
81231;SDS011;70703;55.652;37.710;2024-02-04T00:13:14;20.27;;;11.95;;
81231;SDS011;70703;55.652;37.710;2024-02-04T00:13:27;18.83;;;11.82;;
81231;SDS011;70703;55.652;37.710;2024-02-04T00:13:38;18.45;;;11.63;;
81231;SDS011;70703;55.652;37.710;2024-02-04T00:13:50;21.33;;;11.60;;
81231;SDS011;70703;55.652;37.710;2024-02-04T00:14:02;22.40;;;11.68;;
81231;SDS011;70703;55.652;37.710;2024-02-04T00:14:13;22.45;;;11.65;;
81231;SDS011;70703;55.652;37.710;2024-02-04T00:14:25;20.48;;;11.57;;
81231;SDS011;70703;55.652;37.710;2024-02-04T00:14:36;22.55;;;11.45;;
81231;SDS011;70703;55.652;37.710;2024-02-04T00:14:49;21.25;;;11.80;;
81231;SDS011;70703;55.652;37.710;2024-02-04T00:15:01;20.58;;;12.00;;
81231;SDS011;70703;55.652;37.710;2024-02-04T00:15:15;20.15;;;11.52;;
81231;SDS011;70703;55.652;37.710;2024-02-04T00:15:27;20.13;;;11.45;;
81231;SDS011;70703;55.652;37.710;2024-02-04T00:15:38;18.98;;;11.40;;
81231;SDS011;70703;55.652;37.710;2024-02-04T00:15:50;19.67;;;11.32;;
81231;SDS011;70703;55.652;37.710;2024-02-04T00:16:06;20.05;;;11.50;;
81231;SDS011;70703;55.652;37.710;2024-02-04T00:16:17;19.35;;;11.55;;
81231;SDS011;70703;55.652;37.710;2024-02-04T00:16:28;20.13;;;11.63;;
81231;SDS011;70703;55.652;37.710;2024-02-04T00:16:45;22.30;;;12.00;;
81231;SDS011;70703;55.652;37.710;2024-02-04T00:16:57;21.92;;;11.94;;
81231;SDS011;70703;55.652;37.710;2024-02-04T00:17:08;20.70;;;11.60;;
81231;SDS011;70703;55.652;37.710;2024-02-04T00:17:19;21.02;;;11.85;;
81231;SDS011;70703;55.652;37.710;2024-02-04T00:17:30;21.38;;;11.90;;
81231;SDS011;70703;55.652;37.710;2024-02-04T00:17:44;21.85;;;11.85;;
81231;SDS011;70703;55.652;37.710;2024-02-04T00:17:55;21.10;;;11.82;;
81231;SDS011;70703;55.652;37.710;2024-02-04T00:18:08;21.08;;;12.05;;
81231;SDS011;70703;55.652;37.710;2024-02-04T00:18:19;20.35;;;11.90;;
81231;SDS011;70703;55.652;37.710;2024-02-04T00:18:31;19.40;;;11.85;;
81231;SDS011;70703;55.652;37.710;2024-02-04T00:18:43;19.63;;;11.90;;
81231;SDS011;70703;55.652;37.710;2024-02-04T00:18:54;20.77;;;12.02;;
81231;SDS011;70703;55.652;37.710;2024-02-04T00:19:05;22.10;;;12.25;;
81231;SDS011;70703;55.652;37.710;2024-02-04T00:19:17;23.48;;;12.52;;
81231;SDS011;70703;55.652;37.710;2024-02-04T00:19:28;21.92;;;12.15;;
81231;SDS011;70703;55.652;37.710;2024-02-04T00:19:39;19.25;;;11.70;;
81231;SDS011;70703;55.652;37.710;2024-02-04T00:19:50;19.25;;;11.43;;
81231;SDS011;70703;55.652;37.710;2024-02-04T00:20:01;19.50;;;11.60;;
81231;SDS011;70703;55.652;37.710;2024-02-04T00:20:14;19.30;;;11.98;;
81231;SDS011;70703;55.652;37.710;2024-02-04T00:20:26;20.75;;;12.07;;
81231;SDS011;70703;55.652;37.710;2024-02-04T00:20:38;21.10;;;12.05;;
81231;SDS011;70703;55.652;37.710;2024-02-04T00:20:51;20.13;;;12.07;;
81231;SDS011;70703;55.652;37.710;2024-02-04T00:21:03;20.80;;;12.00;;
81231;SDS011;70703;55.652;37.710;2024-02-04T00:21:16;21.77;;;11.98;;
81231;SDS011;70703;55.652;37.710;2024-02-04T00:21:27;21.00;;;11.90;;
81231;SDS011;70703;55.652;37.710;2024-02-04T00:21:38;19.98;;;12.25;;
81231;SDS011;70703;55.652;37.710;2024-02-04T00:21:50;20.13;;;12.30;;
81231;SDS011;70703;55.652;37.710;2024-02-04T00:22:01;20.60;;;12.07;;
81231;SDS011;70703;55.652;37.710;2024-02-04T00:22:13;19.60;;;11.50;;
81231;SDS011;70703;55.652;37.710;2024-02-04T00:22:24;18.10;;;11.38;;
81231;SDS011;70703;55.652;37.710;2024-02-04T00:22:35;18.65;;;11.45;;
81231;SDS011;70703;55.652;37.710;2024-02-04T00:22:46;18.25;;;11.07;;
81231;SDS011;70703;55.652;37.710;2024-02-04T00:22:59;19.27;;;10.90;;
81231;SDS011;70703;55.652;37.710;2024-02-04T00:23:15;20.63;;;11.02;;
81231;SDS011;70703;55.652;37.710;2024-02-04T00:23:26;20.20;;;11.05;;
81231;SDS011;70703;55.652;37.710;2024-02-04T00:23:37;19.13;;;10.95;;
81231;SDS011;70703;55.652;37.710;2024-02-04T00:23:49;19.73;;;11.18;;
81231;SDS011;70703;55.652;37.710;2024-02-04T00:24:01;19.42;;;11.13;;
81231;SDS011;70703;55.652;37.710;2024-02-04T00:24:13;19.20;;;11.02;;
81231;SDS011;70703;55.652;37.710;2024-02-04T00:24:24;19.23;;;10.95;;
81231;SDS011;70703;55.652;37.710;2024-02-04T00:24:38;18.75;;;10.98;;
81231;SDS011;70703;55.652;37.710;2024-02-04T00:24:49;17.40;;;11.00;;
81231;SDS011;70703;55.652;37.710;2024-02-04T00:25:00;18.45;;;11.18;;
81231;SDS011;70703;55.652;37.710;2024-02-04T00:25:15;18.38;;;10.93;;
81231;SDS011;70703;55.652;37.710;2024-02-04T00:25:30;17.73;;;10.75;;
81231;SDS011;70703;55.652;37.710;2024-02-04T00:25:42;18.80;;;11.00;;
81231;SDS011;70703;55.652;37.710;2024-02-04T00:25:53;18.02;;;11.07;;
81231;SDS011;70703;55.652;37.710;2024-02-04T00:26:05;18.90;;;11.02;;
81231;SDS011;70703;55.652;37.710;2024-02-04T00:26:18;20.73;;;11.25;;
81231;SDS011;70703;55.652;37.710;2024-02-04T00:26:28;20.45;;;11.43;;
81231;SDS011;70703;55.652;37.710;2024-02-04T00:26:40;19.08;;;11.60;;
81231;SDS011;70703;55.652;37.710;2024-02-04T00:26:51;18.60;;;11.23;;
81231;SDS011;70703;55.652;37.710;2024-02-04T00:27:03;19.83;;;11.30;;
81231;SDS011;70703;55.652;37.710;2024-02-04T00:27:15;20.45;;;11.43;;
81231;SDS011;70703;55.652;37.710;2024-02-04T00:27:25;19.50;;;11.23;;
81231;SDS011;70703;55.652;37.710;2024-02-04T00:27:37;17.80;;;10.98;;
81231;SDS011;70703;55.652;37.710;2024-02-04T00:27:48;18.05;;;10.80;;
81231;SDS011;70703;55.652;37.710;2024-02-04T00:28:00;18.70;;;10.98;;
81231;SDS011;70703;55.652;37.710;2024-02-04T00:28:12;19.25;;;10.93;;
81231;SDS011;70703;55.652;37.710;2024-02-04T00:28:24;18.20;;;10.95;;
81231;SDS011;70703;55.652;37.710;2024-02-04T00:28:36;19.73;;;11.23;;
81231;SDS011;70703;55.652;37.710;2024-02-04T00:28:50;20.60;;;11.43;;
81231;SDS011;70703;55.652;37.710;2024-02-04T00:29:02;20.25;;;11.25;;
81231;SDS011;70703;55.652;37.710;2024-02-04T00:29:13;18.50;;;11.10;;
81231;SDS011;70703;55.652;37.710;2024-02-04T00:29:24;19.30;;;11.02;;
81231;SDS011;70703;55.652;37.710;2024-02-04T00:29:36;18.98;;;11.02;;
81231;SDS011;70703;55.652;37.710;2024-02-04T00:29:48;19.10;;;10.95;;
81231;SDS011;70703;55.652;37.710;2024-02-04T00:29:59;16.60;;;10.43;;
81231;SDS011;70703;55.652;37.710;2024-02-04T00:30:12;18.60;;;10.35;;
81231;SDS011;70703;55.652;37.710;2024-02-04T00:30:24;18.20;;;10.55;;
81231;SDS011;70703;55.652;37.710;2024-02-04T00:30:37;17.73;;;10.75;;
81231;SDS011;70703;55.652;37.710;2024-02-04T00:30:48;17.05;;;10.25;;
81231;SDS011;70703;55.652;37.710;2024-02-04T00:31:00;19.35;;;10.23;;
81231;SDS011;70703;55.652;37.710;2024-02-04T00:31:11;18.58;;;10.13;;
81231;SDS011;70703;55.652;37.710;2024-02-04T00:31:22;18.00;;;10.27;;
81231;SDS011;70703;55.652;37.710;2024-02-04T00:31:33;18.42;;;10.43;;
81231;SDS011;70703;55.652;37.710;2024-02-04T00:31:44;17.90;;;10.50;;
81231;SDS011;70703;55.652;37.710;2024-02-04T00:31:56;17.83;;;10.77;;
81231;SDS011;70703;55.652;37.710;2024-02-04T00:32:07;17.77;;;10.88;;
81231;SDS011;70703;55.652;37.710;2024-02-04T00:32:19;18.33;;;10.32;;
81231;SDS011;70703;55.652;37.710;2024-02-04T00:32:30;17.45;;;9.90;;
81231;SDS011;70703;55.652;37.710;2024-02-04T00:32:41;16.08;;;9.80;;
81231;SDS011;70703;55.652;37.710;2024-02-04T00:32:51;16.15;;;10.10;;
81231;SDS011;70703;55.652;37.710;2024-02-04T00:33:03;16.95;;;10.13;;
81231;SDS011;70703;55.652;37.710;2024-02-04T00:33:15;19.55;;;10.32;;
81231;SDS011;70703;55.652;37.710;2024-02-04T00:33:26;19.27;;;10.38;;
81231;SDS011;70703;55.652;37.710;2024-02-04T00:33:37;19.42;;;10.68;;
81231;SDS011;70703;55.652;37.710;2024-02-04T00:33:50;19.02;;;10.75;;
81231;SDS011;70703;55.652;37.710;2024-02-04T00:34:01;20.05;;;11.10;;
81231;SDS011;70703;55.652;37.710;2024-02-04T00:34:12;21.27;;;11.25;;
81231;SDS011;70703;55.652;37.710;2024-02-04T00:34:24;19.98;;;11.10;;
81231;SDS011;70703;55.652;37.710;2024-02-04T00:34:35;18.80;;;10.63;;
81231;SDS011;70703;55.652;37.710;2024-02-04T00:34:46;17.77;;;10.57;;
81231;SDS011;70703;55.652;37.710;2024-02-04T00:34:57;17.10;;;10.88;;
81231;SDS011;70703;55.652;37.710;2024-02-04T00:35:08;17.27;;;11.20;;
81231;SDS011;70703;55.652;37.710;2024-02-04T00:35:20;17.92;;;11.15;;
81231;SDS011;70703;55.652;37.710;2024-02-04T00:35:32;19.17;;;11.43;;
81231;SDS011;70703;55.652;37.710;2024-02-04T00:35:43;20.85;;;11.80;;
81231;SDS011;70703;55.652;37.710;2024-02-04T00:35:55;21.20;;;12.48;;
81231;SDS011;70703;55.652;37.710;2024-02-04T00:36:07;20.90;;;12.15;;
81231;SDS011;70703;55.652;37.710;2024-02-04T00:36:18;20.38;;;11.90;;
81231;SDS011;70703;55.652;37.710;2024-02-04T00:36:30;20.58;;;11.07;;
81231;SDS011;70703;55.652;37.710;2024-02-04T00:36:42;18.58;;;10.27;;
81231;SDS011;70703;55.652;37.710;2024-02-04T00:36:54;20.00;;;10.35;;
81231;SDS011;70703;55.652;37.710;2024-02-04T00:37:06;18.63;;;10.57;;
81231;SDS011;70703;55.652;37.710;2024-02-04T00:37:17;19.20;;;10.87;;
81231;SDS011;70703;55.652;37.710;2024-02-04T00:37:28;17.48;;;10.57;;
81231;SDS011;70703;55.652;37.710;2024-02-04T00:37:39;18.38;;;10.57;;
81231;SDS011;70703;55.652;37.710;2024-02-04T00:37:51;17.60;;;10.18;;
81231;SDS011;70703;55.652;37.710;2024-02-04T00:38:02;17.97;;;10.13;;
81231;SDS011;70703;55.652;37.710;2024-02-04T00:38:13;17.30;;;10.13;;
81231;SDS011;70703;55.652;37.710;2024-02-04T00:38:24;17.48;;;10.07;;
81231;SDS011;70703;55.652;37.710;2024-02-04T00:38:35;16.80;;;10.02;;
81231;SDS011;70703;55.652;37.710;2024-02-04T00:38:46;17.48;;;10.02;;
81231;SDS011;70703;55.652;37.710;2024-02-04T00:38:59;17.42;;;9.95;;
81231;SDS011;70703;55.652;37.710;2024-02-04T00:39:10;16.42;;;9.88;;
81231;SDS011;70703;55.652;37.710;2024-02-04T00:39:21;15.55;;;10.05;;
81231;SDS011;70703;55.652;37.710;2024-02-04T00:39:33;14.70;;;9.80;;
81231;SDS011;70703;55.652;37.710;2024-02-04T00:39:45;14.90;;;9.77;;
81231;SDS011;70703;55.652;37.710;2024-02-04T00:39:56;15.95;;;9.85;;
81231;SDS011;70703;55.652;37.710;2024-02-04T00:40:08;16.55;;;10.00;;
81231;SDS011;70703;55.652;37.710;2024-02-04T00:40:43;16.35;;;9.95;;
81231;SDS011;70703;55.652;37.710;2024-02-04T00:40:55;17.35;;;10.00;;
81231;SDS011;70703;55.652;37.710;2024-02-04T00:41:07;18.40;;;10.25;;
81231;SDS011;70703;55.652;37.710;2024-02-04T00:41:19;16.85;;;10.02;;
81231;SDS011;70703;55.652;37.710;2024-02-04T00:41:30;15.73;;;10.15;;
81231;SDS011;70703;55.652;37.710;2024-02-04T00:41:42;14.65;;;10.05;;
81231;SDS011;70703;55.652;37.710;2024-02-04T00:41:53;15.95;;;10.15;;
81231;SDS011;70703;55.652;37.710;2024-02-04T00:42:05;16.63;;;10.15;;
81231;SDS011;70703;55.652;37.710;2024-02-04T00:42:16;16.77;;;10.30;;
81231;SDS011;70703;55.652;37.710;2024-02-04T00:42:30;15.13;;;9.93;;
81231;SDS011;70703;55.652;37.710;2024-02-04T00:42:43;14.85;;;9.85;;
81231;SDS011;70703;55.652;37.710;2024-02-04T00:42:53;16.08;;;10.30;;
81231;SDS011;70703;55.652;37.710;2024-02-04T00:43:05;15.93;;;10.45;;
81231;SDS011;70703;55.652;37.710;2024-02-04T00:43:15;16.00;;;10.60;;
81231;SDS011;70703;55.652;37.710;2024-02-04T00:43:26;16.13;;;10.50;;
81231;SDS011;70703;55.652;37.710;2024-02-04T00:43:38;16.52;;;10.45;;
81231;SDS011;70703;55.652;37.710;2024-02-04T00:43:50;17.58;;;10.52;;
81231;SDS011;70703;55.652;37.710;2024-02-04T00:44:01;17.65;;;10.52;;
81231;SDS011;70703;55.652;37.710;2024-02-04T00:44:13;17.30;;;10.40;;
81231;SDS011;70703;55.652;37.710;2024-02-04T00:44:24;16.42;;;10.52;;
81231;SDS011;70703;55.652;37.710;2024-02-04T00:44:35;16.15;;;10.65;;
81231;SDS011;70703;55.652;37.710;2024-02-04T00:44:47;16.08;;;10.80;;
81231;SDS011;70703;55.652;37.710;2024-02-04T00:44:59;16.88;;;10.60;;
81231;SDS011;70703;55.652;37.710;2024-02-04T00:45:09;17.20;;;10.37;;
81231;SDS011;70703;55.652;37.710;2024-02-04T00:45:21;17.05;;;10.00;;
81231;SDS011;70703;55.652;37.710;2024-02-04T00:45:31;17.07;;;9.90;;
81231;SDS011;70703;55.652;37.710;2024-02-04T00:45:43;15.45;;;9.80;;
81231;SDS011;70703;55.652;37.710;2024-02-04T00:45:55;16.60;;;9.73;;
81231;SDS011;70703;55.652;37.710;2024-02-04T00:46:07;16.15;;;9.90;;
81231;SDS011;70703;55.652;37.710;2024-02-04T00:46:20;16.13;;;10.23;;
81231;SDS011;70703;55.652;37.710;2024-02-04T00:46:32;16.35;;;10.05;;
81231;SDS011;70703;55.652;37.710;2024-02-04T00:46:45;17.70;;;10.27;;
81231;SDS011;70703;55.652;37.710;2024-02-04T00:46:56;17.92;;;10.48;;
81231;SDS011;70703;55.652;37.710;2024-02-04T00:47:07;16.75;;;10.15;;
81231;SDS011;70703;55.652;37.710;2024-02-04T00:47:18;15.00;;;9.73;;
81231;SDS011;70703;55.652;37.710;2024-02-04T00:47:29;15.75;;;9.88;;
81231;SDS011;70703;55.652;37.710;2024-02-04T00:47:39;16.00;;;9.88;;
81231;SDS011;70703;55.652;37.710;2024-02-04T00:47:52;17.20;;;9.93;;
81231;SDS011;70703;55.652;37.710;2024-02-04T00:48:03;17.38;;;9.85;;
81231;SDS011;70703;55.652;37.710;2024-02-04T00:48:14;17.52;;;9.75;;
81231;SDS011;70703;55.652;37.710;2024-02-04T00:48:26;17.48;;;9.75;;
81231;SDS011;70703;55.652;37.710;2024-02-04T00:48:38;17.20;;;9.85;;
81231;SDS011;70703;55.652;37.710;2024-02-04T00:48:52;18.38;;;10.20;;
81231;SDS011;70703;55.652;37.710;2024-02-04T00:49:02;17.42;;;10.27;;
81231;SDS011;70703;55.652;37.710;2024-02-04T00:49:13;17.15;;;10.15;;
81231;SDS011;70703;55.652;37.710;2024-02-04T00:49:25;15.88;;;9.85;;
81231;SDS011;70703;55.652;37.710;2024-02-04T00:49:36;15.93;;;10.10;;
81231;SDS011;70703;55.652;37.710;2024-02-04T00:49:48;15.90;;;10.05;;
81231;SDS011;70703;55.652;37.710;2024-02-04T00:49:59;16.45;;;9.90;;
81231;SDS011;70703;55.652;37.710;2024-02-04T00:50:09;16.55;;;9.63;;
81231;SDS011;70703;55.652;37.710;2024-02-04T00:50:20;16.75;;;9.70;;
81231;SDS011;70703;55.652;37.710;2024-02-04T00:50:33;16.05;;;10.07;;
81231;SDS011;70703;55.652;37.710;2024-02-04T00:50:44;16.05;;;9.98;;
81231;SDS011;70703;55.652;37.710;2024-02-04T00:50:56;15.57;;;10.00;;
81231;SDS011;70703;55.652;37.710;2024-02-04T00:51:06;15.43;;;9.90;;
81231;SDS011;70703;55.652;37.710;2024-02-04T00:51:17;15.80;;;10.30;;
81231;SDS011;70703;55.652;37.710;2024-02-04T00:51:29;16.45;;;10.10;;
81231;SDS011;70703;55.652;37.710;2024-02-04T00:51:40;15.60;;;9.98;;
81231;SDS011;70703;55.652;37.710;2024-02-04T00:51:52;15.77;;;9.68;;
81231;SDS011;70703;55.652;37.710;2024-02-04T00:52:03;15.82;;;9.52;;
81231;SDS011;70703;55.652;37.710;2024-02-04T00:52:14;16.85;;;9.60;;
81231;SDS011;70703;55.652;37.710;2024-02-04T00:52:26;18.45;;;9.73;;
81231;SDS011;70703;55.652;37.710;2024-02-04T00:52:38;18.40;;;9.65;;
81231;SDS011;70703;55.652;37.710;2024-02-04T00:52:50;17.65;;;9.60;;
81231;SDS011;70703;55.652;37.710;2024-02-04T00:53:03;15.65;;;9.60;;
81231;SDS011;70703;55.652;37.710;2024-02-04T00:53:14;15.50;;;9.57;;
81231;SDS011;70703;55.652;37.710;2024-02-04T00:53:25;15.50;;;9.60;;
81231;SDS011;70703;55.652;37.710;2024-02-04T00:53:37;16.73;;;9.98;;
81231;SDS011;70703;55.652;37.710;2024-02-04T00:53:49;16.25;;;9.98;;
81231;SDS011;70703;55.652;37.710;2024-02-04T00:53:59;15.60;;;10.00;;
81231;SDS011;70703;55.652;37.710;2024-02-04T00:54:11;14.82;;;9.93;;
81231;SDS011;70703;55.652;37.710;2024-02-04T00:54:22;15.27;;;9.90;;
81231;SDS011;70703;55.652;37.710;2024-02-04T00:54:33;16.27;;;9.90;;
81231;SDS011;70703;55.652;37.710;2024-02-04T00:54:45;16.90;;;9.98;;
81231;SDS011;70703;55.652;37.710;2024-02-04T00:54:56;16.83;;;10.15;;
81231;SDS011;70703;55.652;37.710;2024-02-04T00:55:08;16.08;;;9.57;;
81231;SDS011;70703;55.652;37.710;2024-02-04T00:55:20;14.90;;;9.15;;
81231;SDS011;70703;55.652;37.710;2024-02-04T00:55:31;14.38;;;8.93;;
81231;SDS011;70703;55.652;37.710;2024-02-04T00:55:42;15.60;;;9.52;;
81231;SDS011;70703;55.652;37.710;2024-02-04T00:55:53;15.10;;;9.50;;
81231;SDS011;70703;55.652;37.710;2024-02-04T00:56:04;14.45;;;9.48;;
81231;SDS011;70703;55.652;37.710;2024-02-04T00:56:15;15.38;;;9.70;;
81231;SDS011;70703;55.652;37.710;2024-02-04T00:56:26;15.88;;;9.90;;
81231;SDS011;70703;55.652;37.710;2024-02-04T00:56:37;16.40;;;9.90;;
81231;SDS011;70703;55.652;37.710;2024-02-04T00:56:49;14.63;;;9.57;;
81231;SDS011;70703;55.652;37.710;2024-02-04T00:57:00;14.20;;;9.25;;
81231;SDS011;70703;55.652;37.710;2024-02-04T00:57:13;15.32;;;9.73;;
81231;SDS011;70703;55.652;37.710;2024-02-04T00:57:24;15.48;;;9.70;;
81231;SDS011;70703;55.652;37.710;2024-02-04T00:57:35;14.70;;;9.63;;
81231;SDS011;70703;55.652;37.710;2024-02-04T00:57:46;14.82;;;9.60;;
81231;SDS011;70703;55.652;37.710;2024-02-04T00:57:56;15.18;;;9.70;;
81231;SDS011;70703;55.652;37.710;2024-02-04T00:58:11;15.50;;;9.38;;
81231;SDS011;70703;55.652;37.710;2024-02-04T00:58:21;15.50;;;9.20;;
81231;SDS011;70703;55.652;37.710;2024-02-04T00:58:33;15.18;;;9.20;;
81231;SDS011;70703;55.652;37.710;2024-02-04T00:58:46;14.68;;;8.98;;
81231;SDS011;70703;55.652;37.710;2024-02-04T00:58:57;14.05;;;8.73;;
81231;SDS011;70703;55.652;37.710;2024-02-04T00:59:08;13.73;;;8.65;;
81231;SDS011;70703;55.652;37.710;2024-02-04T00:59:19;14.45;;;8.75;;
81231;SDS011;70703;55.652;37.710;2024-02-04T00:59:30;14.93;;;9.10;;
81231;SDS011;70703;55.652;37.710;2024-02-04T00:59:41;14.25;;;8.80;;
81231;SDS011;70703;55.652;37.710;2024-02-04T00:59:53;12.65;;;8.63;;
81231;SDS011;70703;55.652;37.710;2024-02-04T01:00:07;12.73;;;8.60;;
81231;SDS011;70703;55.652;37.710;2024-02-04T01:00:19;13.27;;;8.70;;
81231;SDS011;70703;55.652;37.710;2024-02-04T01:00:31;14.18;;;8.52;;
81231;SDS011;70703;55.652;37.710;2024-02-04T01:00:42;14.18;;;8.75;;
81231;SDS011;70703;55.652;37.710;2024-02-04T01:00:53;14.77;;;9.02;;
81231;SDS011;70703;55.652;37.710;2024-02-04T01:01:04;14.75;;;9.35;;
81231;SDS011;70703;55.652;37.710;2024-02-04T01:01:15;14.82;;;9.40;;
81231;SDS011;70703;55.652;37.710;2024-02-04T01:01:26;15.05;;;9.48;;
81231;SDS011;70703;55.652;37.710;2024-02-04T01:01:36;14.95;;;9.25;;
81231;SDS011;70703;55.652;37.710;2024-02-04T01:01:47;15.77;;;9.30;;
81231;SDS011;70703;55.652;37.710;2024-02-04T01:01:58;16.15;;;9.45;;
81231;SDS011;70703;55.652;37.710;2024-02-04T01:02:10;15.63;;;9.32;;
81231;SDS011;70703;55.652;37.710;2024-02-04T01:02:21;15.05;;;9.25;;
81231;SDS011;70703;55.652;37.710;2024-02-04T01:02:32;15.85;;;9.05;;
81231;SDS011;70703;55.652;37.710;2024-02-04T01:02:43;15.60;;;9.18;;
81231;SDS011;70703;55.652;37.710;2024-02-04T01:02:54;14.18;;;8.80;;
81231;SDS011;70703;55.652;37.710;2024-02-04T01:03:05;13.70;;;8.70;;
81231;SDS011;70703;55.652;37.710;2024-02-04T01:03:17;13.23;;;8.27;;
81231;SDS011;70703;55.652;37.710;2024-02-04T01:03:28;13.57;;;8.40;;
81231;SDS011;70703;55.652;37.710;2024-02-04T01:03:39;13.80;;;8.55;;
81231;SDS011;70703;55.652;37.710;2024-02-04T01:03:51;14.65;;;8.95;;
81231;SDS011;70703;55.652;37.710;2024-02-04T01:04:02;14.05;;;8.80;;
81231;SDS011;70703;55.652;37.710;2024-02-04T01:04:15;13.55;;;8.50;;
81231;SDS011;70703;55.652;37.710;2024-02-04T01:04:26;12.13;;;8.43;;
81231;SDS011;70703;55.652;37.710;2024-02-04T01:04:36;12.03;;;8.23;;
81231;SDS011;70703;55.652;37.710;2024-02-04T01:04:48;12.05;;;8.30;;
81231;SDS011;70703;55.652;37.710;2024-02-04T01:04:58;13.03;;;8.63;;
81231;SDS011;70703;55.652;37.710;2024-02-04T01:05:09;13.35;;;8.68;;
81231;SDS011;70703;55.652;37.710;2024-02-04T01:05:21;13.57;;;8.70;;
81231;SDS011;70703;55.652;37.710;2024-02-04T01:05:32;13.65;;;8.85;;
81231;SDS011;70703;55.652;37.710;2024-02-04T01:05:45;14.30;;;9.13;;
81231;SDS011;70703;55.652;37.710;2024-02-04T01:05:56;13.48;;;8.93;;
81231;SDS011;70703;55.652;37.710;2024-02-04T01:06:07;14.80;;;9.05;;
81231;SDS011;70703;55.652;37.710;2024-02-04T01:06:18;14.90;;;9.15;;
81231;SDS011;70703;55.652;37.710;2024-02-04T01:06:30;15.25;;;8.82;;
81231;SDS011;70703;55.652;37.710;2024-02-04T01:06:42;13.85;;;8.30;;
81231;SDS011;70703;55.652;37.710;2024-02-04T01:06:58;13.27;;;8.20;;
81231;SDS011;70703;55.652;37.710;2024-02-04T01:07:09;12.82;;;8.23;;
81231;SDS011;70703;55.652;37.710;2024-02-04T01:07:20;12.73;;;8.07;;
81231;SDS011;70703;55.652;37.710;2024-02-04T01:07:31;12.90;;;8.30;;
81231;SDS011;70703;55.652;37.710;2024-02-04T01:07:43;13.20;;;8.23;;
81231;SDS011;70703;55.652;37.710;2024-02-04T01:07:55;13.38;;;8.38;;
81231;SDS011;70703;55.652;37.710;2024-02-04T01:08:06;12.40;;;7.88;;